< Typhoon 201817 2018 Season Typhoon 201819 >
Typhoon 201818 (RUMBIA)
General InformationTrack Information on Google MapsDetailed Wind InformationForecast History on Google MapsAccess Analytics MapList of All Images || NewsDisaster Info.WeblogTrackbackTyphoon FrontTwiphoonTyphoon Now!Typhoon ImaginationJMA Disaster Info. XMLResourceGoogle EarthGE AnimationAtom FeedGeoJSON
Detalied Best Track (Time Zone = UTC)
Year Month Day Hour Lat. Long. Pressure (hPa) Wind (kt) Class Image Chart
2018 8 14 00 22.9 128.7 998 0 2 Image Chart
2018 8 14 06 23.6 128.2 998 0 2 Image Chart
2018 8 14 12 24.4 127.8 998 0 2 Image Chart
2018 8 14 18 25.5 127.5 998 0 2 Image Chart
2018 8 15 00 27.0 127.3 996 0 2 Image Chart
2018 8 15 06 28.2 126.9 994 35 3 Image Chart
2018 8 15 12 29.1 126.0 992 35 3 Image Chart
2018 8 15 18 29.6 125.3 990 40 3 Image Chart
2018 8 16 00 30.0 124.6 990 40 3 Image Chart
2018 8 16 06 30.3 123.9 990 40 3 Image Chart
2018 8 16 12 30.5 122.9 985 45 3 Image Chart
2018 8 16 18 30.7 121.7 985 45 3 Image Chart
2018 8 17 00 31.1 120.4 985 45 3 Image Chart
2018 8 17 06 31.5 118.8 985 40 3 Image Chart
2018 8 17 12 31.7 117.4 990 35 3 Image Chart
2018 8 17 18 31.9 116.1 990 35 3 Image Chart
2018 8 18 00 32.2 115.3 992 0 2 Image Chart
2018 8 18 06 32.4 114.9 994 0 2 Image Chart
2018 8 18 12 32.7 114.5 994 0 2 Image Chart
2018 8 18 18 33.2 114.3 996 0 2 Image Chart
2018 8 19 00 33.6 114.7 998 0 2 Image Chart
2018 8 19 06 33.8 115.3 998 0 2 Image Chart
2018 8 19 12 34.1 116.4 998 0 2 Image Chart
Japan Meteorological Agency Best Track Data | Correction Date : 2018-10-05
< Typhoon 201817 2018 Season Typhoon 201819 >

Help